Flight Track Log - Related Links

Times and Time Zones

All times are in EDT time to prevent confusion due to time zone crossing. See the N55177 flight status page for this flight to view local times or setup timezone preferences in your user account.

Time Position Orientation Groundspeed Altitude Reporting Facility
EDT Latitude Longitude Course Direction KTS MPH feet Rate Location/Type
Sun 10:39:30 AM 24.8003 -81.0611 55° Northeast 116 133 3,500  Level Miami Center
Sun 10:40:30 AM 24.8200 -81.0300 55° Northeast 116 133 3,500  Level Miami Center
Sun 10:41:30 AM 24.8375 -80.9983 59° Northeast 116 133 3,500  Level Miami Center
Sun 10:42:30 AM 24.8553 -80.9647 60° Northeast 116 133 3,500 -50 Level Miami Center
Sun 10:43:30 AM 24.8708 -80.9308 63° Northeast 116 133 3,400 -50 Descending Miami Center
Sun 10:44:30 AM 24.8861 -80.9017 60° Northeast 116 133 3,400  Level Miami Center
Sun 10:45:30 AM 24.8975 -80.8678 70° East 111 128 3,400 50 Level Miami Center
Sun 10:46:30 AM 24.9131 -80.8339 63° Northeast 111 128 3,500 50 Climbing Miami Center
Sun 10:47:30 AM 24.9306 -80.8044 57° Northeast 111 128 3,500  Level Miami Center
Sun 10:48:30 AM 24.9503 -80.7753 53° Northeast 111 128 3,500 -50 Level Miami Center
Sun 10:49:30 AM 24.9656 -80.7439 62° Northeast 106 122 3,400  Descending Miami Center
Sun 10:50:30 AM 24.9811 -80.7122 62° Northeast 111 128 3,500 50 Climbing Miami Center
Sun 10:51:30 AM 24.9964 -80.6828 60° Northeast 111 128 3,500  Level Miami Center
Sun 10:52:30 AM 25.0139 -80.6536 56° Northeast 111 128 3,500 -50 Level Miami Center
Sun 10:53:30 AM 25.0333 -80.6244 54° Northeast 111 128 3,400 -50 Descending Miami Center
Sun 10:54:30 AM 25.0467 -80.5928 65° Northeast 111 128 3,400  Level Miami Center
Sun 10:55:30 AM 25.0664 -80.5636 53° Northeast 111 128 3,400  Level Miami Center
Sun 10:56:30 AM 25.0839 -80.5319 59° Northeast 116 133 3,400  Level Miami Center
Sun 10:57:30 AM 25.0972 -80.4981 67° East 116 133 3,400  Level Miami Center
Sun 10:58:30 AM 25.1106 -80.4661 65° Northeast 116 133 3,400  Level Miami Center
Sun 10:59:30 AM 25.1217 -80.4322 70° East 111 128 3,400 50 Level Miami Center
Sun 11:00:30 AM 25.1350 -80.4006 65° Northeast 111 128 3,500  Climbing Miami Center
Sun 11:01:30 AM 25.1525 -80.3689 59° Northeast 111 128 3,400 -50 Descending Miami Center
Sun 11:02:30 AM 25.1658 -80.3347 67° East 111 128 3,400 50 Level Miami Center
Sun 11:03:30 AM 25.1833 -80.3056 56° Northeast 111 128 3,500 50 Climbing Miami Center
Sun 11:04:30 AM 25.2008 -80.2714 60° Northeast 111 128 3,500 -50 Level Miami Center
Sun 11:05:30 AM 25.2203 -80.2444 51° Northeast 116 133 3,400 -50 Descending Miami Center
Sun 11:06:30 AM 25.2397 -80.2128 56° Northeast 116 133 3,400 750 Level Miami Center
Sun 11:07:30 AM 25.2572 -80.1811 59° Northeast 116 133 4,900  Climbing Miami Center
Sun 11:08:30 AM 25.2744 -80.1494 59° Northeast 116 133 3,400 -750 Descending Miami Center
Sun 11:09:30 AM 25.2919 -80.1178 59° Northeast 116 133 3,400  Level Miami Center
Sun 11:10:30 AM 25.3072 -80.0861 62° Northeast 116 133 3,400  Level Miami Center
Sun 11:11:30 AM 25.3269 -80.0519 57° Northeast 116 133 3,400 50 Level Miami Center
Sun 11:12:30 AM 25.3422 -80.0225 60° Northeast 116 133 3,500  Climbing Miami Center
Sun 11:13:30 AM 25.3575 -79.9908 62° Northeast 116 133 3,400  Descending Miami Center
Sun 11:14:30 AM 25.3747 -79.9567 61° Northeast 116 133 3,500 50 Climbing Miami Center
Sun 11:15:30 AM 25.3881 -79.9247 65° Northeast 111 128 3,500  Level Miami Center
Sun 11:16:30 AM 25.4056 -79.8908 60° Northeast 111 128 3,500 -50 Level Miami Center
Sun 11:17:30 AM 25.4208 -79.8589 62° Northeast 111 128 3,400 -50 Descending Miami Center
Sun 11:18:30 AM 25.4381 -79.8272 59° Northeast 111 128 3,400  Level Miami Center
Sun 11:19:30 AM 25.4472 -79.7953 72° East 111 128 3,400  Level Miami Center
Sun 11:20:30 AM 25.4644 -79.7633 59° Northeast 111 128 3,400  Level Miami Center
Sun 11:21:30 AM 25.4775 -79.7317 65° Northeast 111 128 3,400  Level Miami Center
Sun 11:22:30 AM 25.4950 -79.6975 60° Northeast 111 128 3,400  Level Miami Center
Sun 11:23:30 AM 25.5144 -79.6656 56° Northeast 111 128 3,400  Level Miami Center
Sun 11:24:30 AM 25.5275 -79.6361 64° Northeast 111 128 3,400 50 Level Miami Center
Sun 11:25:30 AM 25.5469 -79.6042 56° Northeast 111 128 3,500 50 Climbing Miami Center
Sun 11:26:30 AM 25.5642 -79.5725 59° Northeast 111 128 3,500  Level Miami Center

Login

Don't have an account? Register now (free) for customized features, flight alerts, and more!